Time;durP1;ratioP1;P1;durP2;ratioP2;P2;SDS_P1;SDS_P2;PMS_P1;PMS_P2;Temp;Humidity;BMP_temperature;BMP_pressure;BME280_temperature;BME280_humidity;BME280_pressure;Samples;Min_cycle;Max_cycle;Signal;HPM_P1;HPM_P2
2022/12/05 00:02:12;;;;;;;17.37;11.57;;;3.60;96.30;;;;;;5004509;28;20187;-64
2022/12/05 00:04:38;;;;;;;15.47;11.43;;;3.60;96.40;;;;;;5026503;28;20215;-63
2022/12/05 00:07:03;;;;;;;17.20;12.47;;;3.70;96.40;;;;;;5029778;28;20190;-64
2022/12/05 00:09:29;;;;;;;19.93;12.43;;;3.70;96.40;;;;;;5047066;28;20186;-64
2022/12/05 00:11:55;;;;;;;18.37;12.83;;;3.60;96.40;;;;;;5014622;28;20269;-64
2022/12/05 00:14:20;;;;;;;19.67;13.43;;;3.70;96.40;;;;;;5041549;28;20280;-64
2022/12/05 00:16:46;;;;;;;16.47;12.40;;;3.70;96.40;;;;;;5017864;28;20203;-64
2022/12/05 00:19:14;;;;;;;17.03;12.00;;;3.80;96.40;;;;;;5034464;28;20271;-63
2022/12/05 00:21:39;;;;;;;14.30;11.70;;;3.70;96.50;;;;;;5045637;28;20193;-64
2022/12/05 00:24:08;;;;;;;19.80;13.43;;;3.80;96.50;;;;;;5016289;28;20460;-64
2022/12/05 00:26:34;;;;;;;17.63;12.37;;;3.80;96.50;;;;;;5026873;28;20244;-63
2022/12/05 00:29:00;;;;;;;20.33;13.87;;;3.80;96.50;;;;;;5031858;28;20439;-64
2022/12/05 00:31:27;;;;;;;18.70;12.37;;;3.70;96.50;;;;;;5035430;28;20437;-64
2022/12/05 00:33:53;;;;;;;18.60;13.37;;;3.80;96.50;;;;;;5030237;28;20194;-64
2022/12/05 00:36:25;;;;;;;19.47;14.73;;;3.80;96.50;;;;;;5034050;28;20433;-64
2022/12/05 00:38:51;;;;;;;20.13;12.53;;;3.80;96.50;;;;;;5057511;28;20475;-64
2022/12/05 00:41:20;;;;;;;18.23;12.37;;;3.80;96.50;;;;;;5033451;28;20439;-64
2022/12/05 00:43:46;;;;;;;19.30;13.97;;;3.80;96.50;;;;;;5033635;28;20479;-64
2022/12/05 00:46:15;;;;;;;19.47;12.50;;;3.80;96.50;;;;;;5042623;28;20429;-64
2022/12/05 00:48:41;;;;;;;17.13;12.43;;;3.80;96.50;;;;;;5038891;28;20425;-64
2022/12/05 00:51:10;;;;;;;19.20;13.43;;;3.80;96.50;;;;;;5041714;28;20462;-64
2022/12/05 00:53:36;;;;;;;18.40;12.67;;;3.80;96.60;;;;;;5040302;28;20281;-64
2022/12/05 00:56:07;;;;;;;20.57;12.50;;;3.80;96.50;;;;;;5036928;28;20468;-64
2022/12/05 00:58:34;;;;;;;16.20;11.37;;;3.80;96.50;;;;;;5050210;28;20190;-63
2022/12/05 01:01:39;;;;;;;21.47;14.37;;;3.80;96.60;;;;;;5038450;28;20447;-64
2022/12/05 01:04:11;;;;;;;18.63;13.87;;;3.90;96.60;;;;;;5039580;28;20471;-64
2022/12/05 01:06:37;;;;;;;17.13;12.53;;;3.90;96.60;;;;;;5054229;28;20460;-64
2022/12/05 01:09:04;;;;;;;18.77;12.53;;;3.90;96.60;;;;;;5045659;28;20456;-63
2022/12/05 01:11:30;;;;;;;17.87;12.17;;;3.90;96.60;;;;;;5043727;28;20471;-64
2022/12/05 01:13:56;;;;;;;18.10;12.67;;;3.80;96.60;;;;;;5040229;28;20456;-64
2022/12/05 01:16:28;;;;;;;18.73;12.03;;;3.90;96.60;;;;;;5051107;28;20192;-64
2022/12/05 01:18:55;;;;;;;21.43;14.30;;;3.90;96.60;;;;;;5039292;28;20421;-64
2022/12/05 01:21:21;;;;;;;20.60;12.77;;;3.90;96.60;;;;;;5048064;28;20437;-64
2022/12/05 01:23:47;;;;;;;19.20;13.07;;;3.90;96.60;;;;;;5050077;28;20516;-64
2022/12/05 01:26:14;;;;;;;20.27;12.63;;;3.90;96.60;;;;;;5036343;28;20551;-64
2022/12/05 01:28:40;;;;;;;19.23;12.23;;;3.90;96.60;;;;;;5047500;28;20419;-64
2022/12/05 01:31:27;;;;;;;18.20;12.17;;;3.90;96.60;;;;;;5064120;28;20435;-64
2022/12/05 01:33:55;;;;;;;20.13;13.67;;;3.90;96.60;;;;;;5041088;28;20532;-64
2022/12/05 01:36:21;;;;;;;14.03;10.43;;;3.80;96.60;;;;;;5056946;28;20422;-64
2022/12/05 01:38:47;;;;;;;19.10;11.93;;;3.90;96.60;;;;;;5010663;28;20424;-64
2022/12/05 01:41:18;;;;;;;19.60;13.20;;;3.90;96.60;;;;;;5055386;28;20431;-64
2022/12/05 01:44:01;;;;;;;19.03;13.93;;;3.90;96.60;;;;;;5065124;28;20201;-63
2022/12/05 01:46:29;;;;;;;21.40;13.80;;;3.80;96.60;;;;;;5052484;28;20440;-64
2022/12/05 01:49:24;;;;;;;17.97;12.50;;;3.80;96.60;;;;;;5057972;28;20426;-64
2022/12/05 01:51:53;;;;;;;16.93;12.60;;;3.80;96.60;;;;;;5043737;28;20496;-64
2022/12/05 01:54:21;;;;;;;20.27;13.77;;;3.80;96.60;;;;;;5033076;28;20489;-64
2022/12/05 01:56:55;;;;;;;15.23;11.27;;;3.80;96.60;;;;;;5045231;28;20538;-64
2022/12/05 01:59:22;;;;;;;17.50;12.00;;;3.80;96.60;;;;;;5033476;28;20429;-64
2022/12/05 02:01:48;;;;;;;19.40;13.40;;;3.80;96.60;;;;;;5037374;28;20439;-64
2022/12/05 02:04:14;;;;;;;20.53;13.43;;;3.80;96.60;;;;;;5007726;28;20467;-64
2022/12/05 02:06:40;;;;;;;18.13;12.80;;;3.90;96.70;;;;;;5038817;28;20433;-64
2022/12/05 02:09:06;;;;;;;17.00;12.33;;;3.90;96.60;;;;;;5016922;28;20193;-64
2022/12/05 02:11:33;;;;;;;18.00;12.83;;;3.90;96.60;;;;;;4993976;28;20190;-64
2022/12/05 02:14:14;;;;;;;17.87;12.87;;;3.90;96.70;;;;;;5003906;28;20434;-64
2022/12/05 02:16:46;;;;;;;21.80;13.40;;;3.80;96.60;;;;;;5032547;28;20436;-64
2022/12/05 02:19:35;;;;;;;19.50;13.33;;;3.90;96.70;;;;;;5044286;28;20434;-64
2022/12/05 02:22:19;;;;;;;16.27;11.77;;;3.80;96.70;;;;;;5019532;28;20524;-64
2022/12/05 02:25:27;;;;;;;20.60;12.93;;;3.80;96.70;;;;;;5036192;28;20476;-64
2022/12/05 02:28:26;;;;;;;23.53;14.70;;;3.80;96.60;;;;;;4981856;28;20425;-64
2022/12/05 02:31:20;;;;;;;25.83;15.20;;;3.80;96.60;;;;;;5046456;28;20431;-64
2022/12/05 02:34:01;;;;;;;24.70;15.93;;;3.60;96.40;;;;;;5041889;28;20493;-64
2022/12/05 02:37:02;;;;;;;25.30;15.03;;;3.60;96.40;;;;;;5033719;28;20437;-64
2022/12/05 02:39:33;;;;;;;28.13;16.20;;;3.60;96.40;;;;;;5027264;28;20440;-64
2022/12/05 02:42:12;;;;;;;27.47;17.20;;;3.60;96.40;;;;;;5025082;28;20432;-64
2022/12/05 02:44:50;;;;;;;28.37;16.23;;;3.60;96.40;;;;;;5046780;28;20460;-64
2022/12/05 02:47:20;;;;;;;30.90;17.03;;;3.60;96.30;;;;;;5049903;28;20495;-64
2022/12/05 02:49:47;;;;;;;28.47;15.27;;;3.60;96.30;;;;;;5028873;28;20418;-64
2022/12/05 02:52:15;;;;;;;29.53;16.87;;;3.60;96.30;;;;;;5026278;28;20473;-64
2022/12/05 02:54:43;;;;;;;25.77;15.87;;;3.70;96.40;;;;;;5030124;28;20428;-64
2022/12/05 02:57:11;;;;;;;25.47;15.50;;;3.70;96.40;;;;;;5022824;28;20507;-64
2022/12/05 02:59:37;;;;;;;26.77;15.47;;;3.80;96.40;;;;;;5009707;28;20465;-64
2022/12/05 03:02:03;;;;;;;30.23;15.80;;;3.70;96.40;;;;;;5018490;28;20836;-64
2022/12/05 03:04:30;;;;;;;25.33;16.27;;;3.70;96.40;;;;;;4992818;28;20233;-64
2022/12/05 03:07:03;;;;;;;23.37;14.87;;;3.60;96.30;;;;;;5017579;28;20190;-64
2022/12/05 03:09:44;;;;;;;24.73;15.07;;;3.70;96.40;;;;;;5035160;28;20417;-64
2022/12/05 03:12:21;;;;;;;24.83;14.33;;;3.80;96.40;;;;;;5030680;28;20424;-64
2022/12/05 03:15:00;;;;;;;22.67;13.97;;;3.80;96.40;;;;;;5033395;28;20542;-64
2022/12/05 03:17:31;;;;;;;25.13;14.50;;;3.80;96.40;;;;;;5023362;28;20429;-64
2022/12/05 03:20:07;;;;;;;24.13;13.20;;;3.80;96.50;;;;;;5033325;28;20436;-64
2022/12/05 03:22:47;;;;;;;24.00;13.53;;;3.80;96.50;;;;;;5048679;28;20451;-64
2022/12/05 03:25:13;;;;;;;23.63;13.30;;;3.80;96.50;;;;;;5033433;28;20432;-64
2022/12/05 03:27:45;;;;;;;26.93;15.03;;;3.80;96.50;;;;;;5048775;28;20433;-64
2022/12/05 03:30:14;;;;;;;23.70;13.80;;;3.90;96.50;;;;;;5033756;28;20462;-64
2022/12/05 03:32:40;;;;;;;28.70;15.10;;;3.90;96.50;;;;;;5039763;28;20459;-64
2022/12/05 03:35:10;;;;;;;26.27;12.97;;;3.90;96.50;;;;;;5036744;28;20427;-64
2022/12/05 03:37:57;;;;;;;23.70;14.03;;;3.90;96.50;;;;;;5035560;28;20185;-64
2022/12/05 03:40:52;;;;;;;25.70;14.10;;;3.90;96.60;;;;;;5050820;28;20419;-64
2022/12/05 03:43:22;;;;;;;23.87;13.60;;;4.00;96.60;;;;;;5036618;28;20599;-64
2022/12/05 03:45:57;;;;;;;24.53;13.73;;;3.90;96.60;;;;;;5041617;28;20436;-64
2022/12/05 03:48:30;;;;;;;24.20;14.40;;;3.90;96.50;;;;;;5028306;28;20524;-64
2022/12/05 03:50:58;;;;;;;20.07;13.00;;;4.00;96.60;;;;;;5030098;28;20433;-64
2022/12/05 03:53:30;;;;;;;18.77;11.67;;;4.00;96.60;;;;;;5043432;28;20460;-64
2022/12/05 03:56:10;;;;;;;23.43;12.73;;;4.00;96.60;;;;;;5038158;28;20532;-64
2022/12/05 03:58:43;;;;;;;21.87;13.67;;;4.00;96.60;;;;;;5056970;28;20427;-64
2022/12/05 04:01:10;;;;;;;25.30;14.13;;;4.00;96.60;;;;;;5047118;28;20474;-64
2022/12/05 04:03:43;;;;;;;20.67;13.50;;;4.00;96.60;;;;;;5037769;28;20521;-64
2022/12/05 04:06:17;;;;;;;25.17;14.23;;;3.90;96.60;;;;;;5043607;28;20424;-64
2022/12/05 04:08:52;;;;;;;20.57;13.37;;;3.90;96.60;;;;;;5044031;28;20424;-64
2022/12/05 04:11:22;;;;;;;20.23;13.03;;;3.90;96.60;;;;;;5049597;28;20435;-64
2022/12/05 04:14:01;;;;;;;24.77;15.37;;;3.90;96.50;;;;;;5046740;28;20425;-64
2022/12/05 04:22:24;;;;;;;22.80;13.97;;;3.90;96.50;;;;;;5062092;28;20467;-64
2022/12/05 04:27:45;;;;;;;21.57;12.40;;;3.90;96.50;;;;;;5060276;28;20438;-64
2022/12/05 04:30:16;;;;;;;23.40;13.80;;;3.90;96.50;;;;;;5054125;28;20457;-66
2022/12/05 04:33:14;;;;;;;31.67;17.00;;;3.90;96.50;;;;;;5054389;28;20440;-64
2022/12/05 04:35:53;;;;;;;28.97;15.97;;;3.90;96.60;;;;;;5042823;28;20454;-64
2022/12/05 04:38:51;;;;;;;26.87;15.10;;;3.90;96.60;;;;;;5053968;28;20431;-64
2022/12/05 04:41:51;;;;;;;25.10;14.80;;;3.90;96.60;;;;;;5019693;28;20454;-64
2022/12/05 04:44:25;;;;;;;22.87;13.57;;;3.90;96.60;;;;;;5054474;28;20459;-64
2022/12/05 04:46:53;;;;;;;21.67;12.43;;;3.80;96.60;;;;;;5047058;28;20439;-64
2022/12/05 04:49:23;;;;;;;24.87;14.63;;;3.90;96.60;;;;;;5029404;28;20428;-64
2022/12/05 04:51:52;;;;;;;26.43;15.23;;;3.80;96.60;;;;;;5046451;28;20513;-64
2022/12/05 04:54:41;;;;;;;26.03;15.20;;;3.90;96.60;;;;;;5044388;28;20487;-64
2022/12/05 04:57:14;;;;;;;26.60;15.10;;;3.90;96.60;;;;;;5040630;28;20455;-64
2022/12/05 04:59:40;;;;;;;21.93;13.00;;;3.80;96.60;;;;;;5045478;28;20450;-65
2022/12/05 05:02:08;;;;;;;24.40;15.07;;;3.90;96.70;;;;;;5041436;28;20517;-65
2022/12/05 05:05:01;;;;;;;29.30;15.07;;;3.80;96.70;;;;;;5041095;28;20243;-65
2022/12/05 05:07:27;;;;;;;24.23;15.50;;;3.90;96.70;;;;;;5036754;28;20428;-65
2022/12/05 05:09:52;;;;;;;29.23;15.63;;;3.90;96.70;;;;;;5048780;28;20967;-65
2022/12/05 05:12:18;;;;;;;27.93;13.37;;;3.90;96.70;;;;;;5028349;28;20443;-65
2022/12/05 05:14:44;;;;;;;25.93;13.53;;;3.90;96.70;;;;;;5018948;28;20193;-65
2022/12/05 05:17:09;;;;;;;22.53;13.43;;;3.90;96.70;;;;;;5025028;28;20217;-65
2022/12/05 05:19:35;;;;;;;25.37;14.03;;;3.90;96.60;;;;;;5021081;28;20250;-64
2022/12/05 05:22:01;;;;;;;27.43;16.07;;;3.90;96.70;;;;;;5013067;28;20198;-66
2022/12/05 05:24:26;;;;;;;31.73;16.73;;;4.00;96.70;;;;;;5016710;28;20341;-65
2022/12/05 05:26:52;;;;;;;27.13;14.37;;;4.00;96.70;;;;;;5044022;28;20237;-65
2022/12/05 05:29:18;;;;;;;31.80;16.83;;;3.90;96.70;;;;;;5031692;28;20190;-65
2022/12/05 05:31:44;;;;;;;30.63;16.80;;;4.00;96.70;;;;;;5040649;28;20191;-65
2022/12/05 05:34:11;;;;;;;30.63;16.13;;;3.90;96.70;;;;;;5054467;28;20476;-65
2022/12/05 05:36:37;;;;;;;28.60;15.10;;;3.90;96.70;;;;;;5036922;28;20432;-65
2022/12/05 05:39:05;;;;;;;27.23;14.87;;;3.90;96.70;;;;;;5065705;28;20900;-63
2022/12/05 05:41:35;;;;;;;26.53;13.97;;;3.90;96.70;;;;;;5038017;28;20585;-63
2022/12/05 05:44:02;;;;;;;32.90;17.40;;;4.00;96.70;;;;;;5042793;28;21001;-64
2022/12/05 05:46:31;;;;;;;28.57;14.93;;;4.00;96.70;;;;;;5021890;28;20451;-63
2022/12/05 05:48:57;;;;;;;30.87;14.93;;;4.00;96.70;;;;;;5056447;28;20427;-63
2022/12/05 05:51:26;;;;;;;31.27;15.97;;;4.10;96.70;;;;;;5039974;28;20484;-63
2022/12/05 05:53:52;;;;;;;20.07;13.23;;;4.10;96.70;;;;;;5011900;28;20456;-63
2022/12/05 05:56:19;;;;;;;20.80;13.87;;;4.00;96.70;;;;;;5035323;28;20460;-63
2022/12/05 05:58:45;;;;;;;18.77;12.20;;;4.10;96.70;;;;;;5051608;28;20515;-63
2022/12/05 06:01:16;;;;;;;19.23;12.40;;;4.00;96.60;;;;;;5016144;28;20562;-63
2022/12/05 06:03:42;;;;;;;19.10;11.53;;;4.00;96.60;;;;;;5047224;28;20217;-64
2022/12/05 06:06:11;;;;;;;24.77;13.63;;;4.00;96.60;;;;;;5006296;28;20467;-64
2022/12/05 06:08:39;;;;;;;20.63;12.07;;;4.00;96.60;;;;;;5047480;28;20560;-63
2022/12/05 06:11:06;;;;;;;17.87;11.07;;;4.00;96.60;;;;;;5051966;28;20517;-63
2022/12/05 06:13:32;;;;;;;19.40;11.13;;;4.10;96.60;;;;;;5025696;28;20428;-63
2022/12/05 06:15:58;;;;;;;16.53;9.43;;;4.10;96.60;;;;;;5013304;28;20445;-63
2022/12/05 06:18:23;;;;;;;16.30;10.83;;;4.10;96.60;;;;;;5028680;28;20194;-63
2022/12/05 06:20:56;;;;;;;14.53;10.00;;;4.10;96.60;;;;;;5029867;28;20205;-63
2022/12/05 06:23:23;;;;;;;12.37;8.80;;;4.10;96.60;;;;;;5045718;28;20214;-64
2022/12/05 06:25:50;;;;;;;15.87;9.53;;;4.10;96.60;;;;;;5049664;28;20435;-63
2022/12/05 06:28:17;;;;;;;18.07;10.73;;;4.10;96.60;;;;;;5043194;28;20428;-65
2022/12/05 06:30:43;;;;;;;16.57;9.83;;;4.00;96.60;;;;;;5027164;28;20444;-64
2022/12/05 06:33:10;;;;;;;15.43;9.40;;;4.00;96.60;;;;;;5040828;28;20480;-64
2022/12/05 06:35:35;;;;;;;15.60;10.03;;;4.10;96.60;;;;;;5041735;28;20200;-63
2022/12/05 06:38:01;;;;;;;17.33;10.00;;;4.10;96.60;;;;;;5031260;28;20535;-64
2022/12/05 06:40:27;;;;;;;17.10;10.03;;;4.10;96.60;;;;;;5028138;28;20194;-63
2022/12/05 06:42:53;;;;;;;14.53;9.77;;;4.10;96.60;;;;;;5030070;28;20198;-63
2022/12/05 06:45:18;;;;;;;11.93;8.47;;;4.20;96.60;;;;;;5057184;28;20197;-64
2022/12/05 06:47:44;;;;;;;15.43;9.57;;;4.20;96.70;;;;;;5030346;28;20194;-64
2022/12/05 06:50:10;;;;;;;14.27;9.70;;;4.20;96.60;;;;;;5048936;28;20201;-64
2022/12/05 06:52:36;;;;;;;21.03;10.53;;;4.20;96.60;;;;;;5030725;28;20234;-64
2022/12/05 06:55:01;;;;;;;15.17;9.33;;;4.20;96.60;;;;;;5029251;28;20443;-64
2022/12/05 06:57:27;;;;;;;13.97;9.30;;;4.20;96.60;;;;;;5025155;28;20264;-64
2022/12/05 07:01:37;;;;;;;15.20;9.77;;;4.20;96.60;;;;;;5011207;28;20536;-64
2022/12/05 07:02:40;;;;;;;15.63;8.97;;;4.20;96.60;;;;;;5047868;28;20273;-64
2022/12/05 07:05:07;;;;;;;16.87;9.13;;;4.30;96.70;;;;;;5051929;28;20425;-64
2022/12/05 07:07:32;;;;;;;16.50;10.10;;;4.30;96.70;;;;;;5054539;28;21632;-64
2022/12/05 07:09:58;;;;;;;13.17;9.43;;;4.30;96.70;;;;;;5050438;28;20499;-64
2022/12/05 07:12:24;;;;;;;12.53;8.57;;;4.30;96.70;;;;;;5014611;28;20189;-64
2022/12/05 07:14:49;;;;;;;14.27;9.20;;;4.30;96.70;;;;;;5024834;28;20190;-64
2022/12/05 07:17:17;;;;;;;15.93;10.33;;;4.40;96.70;;;;;;5025512;28;20191;-64
2022/12/05 07:19:42;;;;;;;14.87;10.03;;;4.30;96.70;;;;;;5023285;28;20372;-64
2022/12/05 07:22:08;;;;;;;12.33;8.80;;;4.30;96.70;;;;;;5032084;28;20516;-64
2022/12/05 07:24:34;;;;;;;14.37;9.57;;;4.30;96.70;;;;;;5046348;28;20282;-64
2022/12/05 07:26:59;;;;;;;16.57;9.83;;;4.40;96.70;;;;;;5024482;28;20190;-64
2022/12/05 07:29:25;;;;;;;12.17;8.03;;;4.40;96.70;;;;;;5020044;28;20186;-65
2022/12/05 07:31:52;;;;;;;14.67;10.20;;;4.40;96.70;;;;;;5017191;28;20187;-64
2022/12/05 07:34:18;;;;;;;15.13;10.00;;;4.40;96.70;;;;;;5031353;28;20190;-64
2022/12/05 07:36:44;;;;;;;14.40;9.27;;;4.40;96.70;;;;;;5027961;28;20954;-64
2022/12/05 07:39:09;;;;;;;12.97;8.73;;;4.40;96.70;;;;;;5011635;28;20590;-64
2022/12/05 07:41:35;;;;;;;13.33;9.27;;;4.40;96.70;;;;;;5026010;28;20637;-64
2022/12/05 07:44:01;;;;;;;12.83;9.40;;;4.50;96.70;;;;;;5033182;28;20221;-64
2022/12/05 07:46:28;;;;;;;15.07;10.10;;;4.50;96.70;;;;;;5031393;28;21217;-64
2022/12/05 07:48:53;;;;;;;15.93;9.47;;;4.50;96.70;;;;;;5033880;28;20195;-64
2022/12/05 07:51:20;;;;;;;14.20;10.03;;;4.50;96.70;;;;;;5046780;28;21166;-64
2022/12/05 07:53:46;;;;;;;16.23;9.90;;;4.50;96.70;;;;;;5025806;28;20198;-64
2022/12/05 07:56:15;;;;;;;12.73;9.50;;;4.40;96.70;;;;;;5033188;28;20445;-64
2022/12/05 07:58:42;;;;;;;13.73;10.13;;;4.50;96.70;;;;;;5033759;28;20259;-64
2022/12/05 08:01:14;;;;;;;14.33;9.93;;;4.60;96.70;;;;;;5041564;28;20444;-64
2022/12/05 08:03:40;;;;;;;11.43;9.10;;;4.60;96.70;;;;;;5058720;28;20472;-64
2022/12/05 08:06:09;;;;;;;12.13;8.97;;;4.70;96.70;;;;;;5046934;28;20965;-64
2022/12/05 08:08:36;;;;;;;11.83;8.40;;;4.80;96.80;;;;;;5042495;28;20417;-64
2022/12/05 08:11:04;;;;;;;10.80;8.07;;;4.80;96.80;;;;;;5031755;28;20560;-64
2022/12/05 08:13:30;;;;;;;9.93;8.00;;;4.60;96.50;;;;;;5046301;28;20498;-64
2022/12/05 08:16:00;;;;;;;10.83;7.50;;;4.60;96.20;;;;;;5038552;28;20429;-64
2022/12/05 08:18:26;;;;;;;8.90;7.20;;;4.60;96.00;;;;;;5039153;28;20245;-64
2022/12/05 08:20:51;;;;;;;10.27;7.70;;;4.70;95.90;;;;;;5040248;28;20442;-64
2022/12/05 08:23:17;;;;;;;10.67;7.73;;;4.80;96.20;;;;;;5018435;28;20354;-63
2022/12/05 08:25:43;;;;;;;9.90;7.37;;;4.80;96.20;;;;;;5006791;28;20258;-64
2022/12/05 08:28:09;;;;;;;10.80;6.93;;;4.90;96.30;;;;;;5033774;28;20679;-64
2022/12/05 08:30:35;;;;;;;9.77;7.80;;;5.00;96.40;;;;;;5024331;28;20534;-64
2022/12/05 08:33:00;;;;;;;10.17;7.80;;;5.00;96.30;;;;;;5023776;28;20278;-64
2022/12/05 08:35:26;;;;;;;11.57;8.03;;;5.00;96.30;;;;;;5029270;28;20205;-64
2022/12/05 08:37:52;;;;;;;10.27;8.17;;;5.10;96.30;;;;;;5030305;28;20186;-64
2022/12/05 08:40:17;;;;;;;10.30;7.57;;;5.20;96.40;;;;;;5012946;28;20229;-64
2022/12/05 08:42:43;;;;;;;8.67;7.40;;;5.30;96.40;;;;;;5009017;28;20212;-63
2022/12/05 08:45:09;;;;;;;9.50;7.53;;;5.20;96.40;;;;;;5053980;28;20221;-63
2022/12/05 08:47:35;;;;;;;10.23;8.27;;;5.20;96.40;;;;;;5020521;28;20240;-63
2022/12/05 08:50:01;;;;;;;10.33;8.13;;;5.20;96.30;;;;;;5024910;28;20255;-63
2022/12/05 08:52:26;;;;;;;12.83;8.23;;;5.30;96.40;;;;;;5018784;28;20476;-63
2022/12/05 08:54:52;;;;;;;10.90;7.73;;;5.30;96.40;;;;;;5028061;28;20191;-63
2022/12/05 08:57:17;;;;;;;9.73;7.03;;;5.30;96.40;;;;;;5009199;28;20294;-64
2022/12/05 08:59:43;;;;;;;9.67;7.77;;;5.30;96.40;;;;;;5041547;28;20228;-63
2022/12/05 09:02:10;;;;;;;11.13;8.40;;;5.30;96.40;;;;;;5017113;28;20191;-63
2022/12/05 09:04:35;;;;;;;9.67;7.77;;;5.30;96.50;;;;;;5016823;28;20233;-63
2022/12/05 09:07:02;;;;;;;12.20;8.47;;;5.30;96.50;;;;;;5029894;28;20449;-63
2022/12/05 09:09:28;;;;;;;11.83;8.60;;;5.30;96.50;;;;;;5030255;28;20202;-63
2022/12/05 09:11:54;;;;;;;10.17;8.40;;;5.30;96.50;;;;;;5027196;28;20437;-64
2022/12/05 09:14:20;;;;;;;10.00;7.33;;;5.30;96.50;;;;;;5040929;28;20426;-64
2022/12/05 09:16:46;;;;;;;9.03;6.80;;;5.30;96.50;;;;;;5032261;28;20218;-63
2022/12/05 09:19:19;;;;;;;9.97;8.30;;;5.40;96.50;;;;;;5039828;28;20194;-64
2022/12/05 09:21:45;;;;;;;11.70;8.40;;;5.40;96.50;;;;;;5037558;28;20437;-63
2022/12/05 09:24:12;;;;;;;9.73;7.83;;;5.40;96.40;;;;;;5035326;28;20574;-63
2022/12/05 09:26:38;;;;;;;9.20;7.27;;;5.40;96.50;;;;;;5049645;28;20229;-63
2022/12/05 09:29:04;;;;;;;8.90;7.23;;;5.50;96.50;;;;;;5005340;28;20424;-64
2022/12/05 09:31:30;;;;;;;10.23;8.27;;;5.50;96.50;;;;;;5032479;28;20924;-67
2022/12/05 09:33:56;;;;;;;11.13;8.27;;;5.60;96.50;;;;;;5046478;28;20217;-66
2022/12/05 09:36:25;;;;;;;10.30;8.07;;;5.50;96.50;;;;;;5025449;28;20465;-66
2022/12/05 09:38:52;;;;;;;10.70;7.97;;;5.60;96.50;;;;;;5037745;28;20263;-67
2022/12/05 09:44:40;;;;;;;9.20;7.17;;;5.50;96.40;;;;;;5036452;28;20495;-65
2022/12/05 09:47:42;;;;;;;12.50;7.30;;;5.60;96.40;;;;;;5060409;28;20624;-69
2022/12/05 09:50:31;;;;;;;15.87;11.77;;;5.60;96.40;;;;;;5033642;28;20417;-64
2022/12/05 09:53:12;;;;;;;21.90;13.07;;;5.40;95.80;;;;;;5043272;28;20476;-63
2022/12/05 09:55:43;;;;;;;23.80;13.70;;;5.40;95.60;;;;;;5050393;28;20425;-64
2022/12/05 09:58:21;;;;;;;24.90;14.80;;;5.30;95.20;;;;;;5034980;28;20430;-64
2022/12/05 10:00:50;;;;;;;22.77;15.30;;;5.10;94.80;;;;;;5036007;28;20425;-64
2022/12/05 10:03:33;;;;;;;21.00;14.70;;;5.10;94.30;;;;;;5051161;28;20525;-64
2022/12/05 10:06:27;;;;;;;23.63;14.43;;;5.10;94.80;;;;;;5041501;28;20452;-64
2022/12/05 10:09:27;;;;;;;22.60;15.57;;;5.00;94.60;;;;;;5043329;28;21012;-65
2022/12/05 10:12:23;;;;;;;25.80;16.53;;;5.10;95.00;;;;;;5041042;28;20440;-64
2022/12/05 10:14:55;;;;;;;23.40;14.93;;;5.10;95.00;;;;;;5038437;28;20524;-64
2022/12/05 10:17:33;;;;;;;26.87;17.83;;;5.00;94.80;;;;;;5046806;28;20440;-64
2022/12/05 10:20:03;;;;;;;27.40;17.30;;;5.00;94.90;;;;;;5039752;28;20512;-64
2022/12/05 10:22:51;;;;;;;26.27;17.40;;;5.10;95.20;;;;;;5052294;28;20428;-64
2022/12/05 10:25:20;;;;;;;29.43;16.93;;;5.20;95.30;;;;;;5030817;28;20437;-64
2022/12/05 10:27:57;;;;;;;23.87;16.33;;;5.30;95.40;;;;;;5046206;28;20462;-64
2022/12/05 10:30:25;;;;;;;29.23;17.37;;;5.30;95.40;;;;;;5042191;28;20963;-63
2022/12/05 10:34:41;;;;;;;31.33;22.10;;;5.30;95.00;;;;;;5091151;27;20422;-60
2022/12/05 10:45:14;;;;;;;17.15;15.30;;;23.40;46.80;;;;;;5079944;27;20387;-62
2022/12/05 10:47:40;;;;;;;20.27;13.50;;;;;;;;;;5063006;28;20228;-62
2022/12/05 10:50:19;;;;;;;13.90;12.43;;;11.90;58.00;;;;;;5055410;28;20286;-62
2022/12/05 10:52:45;;;;;;;17.07;14.47;;;;;;;;;;5066088;28;20179;-61
2022/12/05 10:55:14;;;;;;;20.58;13.77;;;;;;;;;;5035349;28;20409;-71
2022/12/05 10:57:39;;;;;;;17.75;11.55;;;19.20;95.90;;;;;;5054789;28;20017;-67
2022/12/05 11:00:12;;;;;;;17.60;14.20;;;20.10;85.40;;;;;;5027594;28;20953;-63
2022/12/05 11:02:39;;;;;;;15.57;12.67;;;18.30;41.70;;;;;;5065251;28;20224;-63
2022/12/05 11:05:05;;;;;;;16.43;11.90;;;12.50;53.80;;;;;;5065744;28;20275;-63
2022/12/05 11:07:48;;;;;;;13.30;11.80;;;9.20;65.10;;;;;;5054077;28;20225;-63
2022/12/05 11:10:33;;;;;;;16.30;12.50;;;7.80;73.90;;;;;;5055899;28;20218;-63
2022/12/05 11:13:01;;;;;;;15.67;12.47;;;6.80;77.90;;;;;;5067188;28;20720;-63
2022/12/05 11:15:30;;;;;;;15.37;13.10;;;6.10;80.60;;;;;;5057807;28;20221;-63
2022/12/05 11:18:16;;;;;;;18.17;13.83;;;5.70;82.30;;;;;;5068814;28;20190;-63
2022/12/05 11:20:41;;;;;;;18.20;14.20;;;5.40;84.40;;;;;;5083181;28;20477;-63
2022/12/05 11:23:33;;;;;;;25.80;16.97;;;5.30;86.70;;;;;;5034336;28;20469;-63
2022/12/05 11:25:59;;;;;;;20.43;15.87;;;5.20;87.20;;;;;;5026577;28;20199;-63
2022/12/05 11:28:33;;;;;;;22.23;16.23;;;5.10;87.60;;;;;;5048814;28;20427;-63
2022/12/05 11:31:07;;;;;;;22.40;16.67;;;5.00;87.90;;;;;;5048276;28;20179;-63
2022/12/05 11:33:35;;;;;;;24.10;16.50;;;5.10;89.90;;;;;;5048351;28;20437;-63
2022/12/05 11:36:24;;;;;;;18.07;13.47;;;5.10;89.50;;;;;;5049054;28;20563;-63
2022/12/05 11:38:57;;;;;;;16.93;12.63;;;5.10;90.60;;;;;;5050730;28;20432;-63
2022/12/05 11:41:55;;;;;;;22.13;15.80;;;5.10;90.70;;;;;;5031607;28;20457;-63
2022/12/05 11:44:39;;;;;;;23.47;16.73;;;5.10;90.50;;;;;;5042233;28;20492;-63
2022/12/05 11:47:31;;;;;;;22.03;16.67;;;5.10;88.90;;;;;;5053450;28;20470;-63
2022/12/05 11:50:14;;;;;;;22.60;16.67;;;5.10;90.80;;;;;;5027249;28;20556;-63
2022/12/05 11:52:58;;;;;;;18.90;14.37;;;5.10;91.10;;;;;;5032054;28;20418;-63
2022/12/05 11:55:28;;;;;;;20.20;14.77;;;5.10;91.50;;;;;;5037045;28;20429;-63
2022/12/05 11:58:11;;;;;;;23.53;17.70;;;5.30;91.80;;;;;;5023418;28;20508;-63
2022/12/05 12:01:00;;;;;;;23.27;15.53;;;5.30;90.80;;;;;;5024480;28;20446;-63
2022/12/05 12:03:53;;;;;;;16.43;12.83;;;5.30;91.10;;;;;;5030593;28;20990;-63
2022/12/05 12:06:30;;;;;;;18.77;13.77;;;5.40;92.20;;;;;;5031799;28;20477;-63
2022/12/05 12:09:04;;;;;;;23.10;16.20;;;5.50;92.30;;;;;;5023757;28;20551;-63
2022/12/05 12:11:59;;;;;;;23.63;17.60;;;5.50;89.40;;;;;;5034988;28;20420;-63
2022/12/05 12:14:33;;;;;;;24.83;17.00;;;5.50;88.80;;;;;;5032853;28;20437;-63
2022/12/05 12:17:17;;;;;;;21.27;15.10;;;5.50;87.60;;;;;;5048177;28;20937;-63
2022/12/05 12:19:54;;;;;;;21.37;16.77;;;5.50;90.10;;;;;;5020146;28;20933;-63
2022/12/05 12:22:39;;;;;;;16.03;11.83;;;5.50;90.50;;;;;;5032302;28;20453;-63
2022/12/05 12:25:49;;;;;;;23.60;17.07;;;5.60;91.70;;;;;;5027426;28;20465;-63
2022/12/05 12:28:52;;;;;;;18.43;14.07;;;5.60;90.60;;;;;;5017670;28;20477;-62
2022/12/05 12:31:44;;;;;;;18.57;14.20;;;5.50;91.40;;;;;;5011785;28;20473;-63
2022/12/05 12:34:48;;;;;;;17.77;14.37;;;5.50;91.40;;;;;;5027117;28;20441;-62
2022/12/05 12:37:33;;;;;;;21.97;14.27;;;5.50;91.50;;;;;;5002956;28;21000;-63
2022/12/05 12:40:18;;;;;;;17.67;13.70;;;5.50;91.50;;;;;;5059298;28;20533;-63
2022/12/05 12:43:03;;;;;;;17.80;12.63;;;5.50;92.20;;;;;;5028705;28;20447;-64
2022/12/05 12:45:53;;;;;;;18.23;12.53;;;5.50;92.80;;;;;;5019051;28;20430;-64
2022/12/05 12:48:31;;;;;;;21.30;15.60;;;5.50;92.50;;;;;;5034209;28;20434;-64
2022/12/05 12:51:00;;;;;;;21.97;15.93;;;5.30;90.50;;;;;;5016597;28;20476;-64
2022/12/05 12:54:09;;;;;;;22.60;15.40;;;5.30;90.90;;;;;;5025555;28;20952;-64
2022/12/05 12:56:59;;;;;;;21.47;16.20;;;5.30;90.60;;;;;;5016605;28;20430;-64
2022/12/05 12:59:52;;;;;;;23.37;15.47;;;5.20;92.30;;;;;;5032958;28;20427;-64
2022/12/05 13:02:40;;;;;;;19.63;14.03;;;5.20;93.00;;;;;;5028408;28;20435;-64
2022/12/05 13:05:19;;;;;;;21.33;15.00;;;5.20;93.00;;;;;;5027737;28;20505;-64
2022/12/05 13:08:15;;;;;;;20.60;15.13;;;5.30;92.50;;;;;;5030853;28;20503;-64
2022/12/05 13:10:44;;;;;;;21.17;15.60;;;5.10;91.70;;;;;;5031072;28;20414;-63
2022/12/05 13:13:18;;;;;;;19.73;14.07;;;5.20;91.40;;;;;;5018350;28;20529;-63
2022/12/05 13:15:50;;;;;;;18.50;12.90;;;5.20;93.20;;;;;;5027314;28;20421;-64
2022/12/05 13:18:21;;;;;;;19.67;13.93;;;5.20;93.20;;;;;;5030371;28;20426;-64
2022/12/05 13:20:51;;;;;;;17.23;12.27;;;5.30;93.20;;;;;;5023892;28;20986;-64
2022/12/05 13:23:20;;;;;;;21.63;15.03;;;5.30;93.00;;;;;;5028117;28;20541;-64
2022/12/05 13:25:47;;;;;;;17.20;12.53;;;5.30;92.60;;;;;;5029918;28;20458;-64
2022/12/05 13:28:40;;;;;;;15.93;11.63;;;5.30;93.00;;;;;;5029601;28;20422;-64
2022/12/05 13:31:07;;;;;;;14.73;10.97;;;5.30;92.60;;;;;;5029707;28;20432;-65